map of ABZ home
ABZ - Airport
Location
City:  Aberdeen, Aberdeenshire, Scotland, United Kingdom
Name:Dyce
ICAO:EGPD
IATA:ABZ

Details
Type:Airport (Aerodrome, Airfield)
Use:Public/Civil, International (customs port of entry)
Latitude:5712'09"N (57.202500)
Longitude:211'53"W (-2.198055)
Elevation:215 ft (66 m)
Variation:2.02W (WMM2015 magnetic declination)
0.17 annual change
Runways:4
Longest:6407 × 151 ft (1953 × 46 m), paved

Time
Time Zone:UTC+0 (DST+1)
Local Time:

Weather
METAR:EGPD 130850Z 22013KT 9999 FEW020 04/02 Q0982 TEMPO SHRA
TAF:EGPD 130453Z 1306/1406 21008KT 9999 FEW015 SCT030 PROB30
TEMPO 1307/1310 6000 SHRA BKN014

Related Locations
Nearby:
Farthest:SZS: 11610 mi / 18684 km
Ryan's Creek, Stewart Island, STL, NZ

Find:

   beyond  
but within

Other Information
Maps:
NOTAMs:
Links:
Sources:

  
flag of United Kingdom
flag of Scotland
  

Airport Diagram

Airport diagram for ABZ

Airport diagram PDF

Sectional Chart

Flight Planning
at skyvector.com

Satellite Image

Google Maps Satellite view

 

Copyright © 2004-2017 Karl L. Swartz. All rights reserved.
The Great Circle Mapper name and logo are trademarks of the Great Circle Mapper.
All other trademarks mentioned herein belong to their respective owners.
Please see credits for attibutions and further copyright information.

  Follow gcmap on Facebook Follow gcmap on Twitter Follow gcmap on Google+ GCmap on LinkedIn

hCard Microformat

Geo Microformat